Time;durP1;ratioP1;P1;durP2;ratioP2;P2;SDS_P1;SDS_P2;PMS_P1;PMS_P2;Temp;Humidity;BMP_temperature;BMP_pressure;BME280_temperature;BME280_humidity;BME280_pressure;Samples;Min_cycle;Max_cycle;Signal;HPM_P1;HPM_P2
2021/07/09 00:01:46;;;;;;;2.80;2.70;;;15.30;99.90;;;;;;5093587;28;20577;-81
2021/07/09 00:04:15;;;;;;;2.57;2.40;;;15.30;99.90;;;;;;5093695;28;20443;-81
2021/07/09 00:06:44;;;;;;;3.13;2.90;;;15.30;99.90;;;;;;5093826;28;20460;-81
2021/07/09 00:09:11;;;;;;;2.53;2.30;;;15.40;99.90;;;;;;5093660;28;20464;-81
2021/07/09 00:11:39;;;;;;;2.67;2.47;;;15.40;99.90;;;;;;5093602;28;20443;-81
2021/07/09 00:14:07;;;;;;;3.17;2.63;;;15.40;99.90;;;;;;5093731;28;20451;-82
2021/07/09 00:16:34;;;;;;;3.20;2.63;;;15.30;99.90;;;;;;5093427;28;20459;-81
2021/07/09 00:19:03;;;;;;;3.80;2.80;;;15.40;99.90;;;;;;5093316;28;21009;-82
2021/07/09 00:21:31;;;;;;;2.67;2.53;;;15.40;99.90;;;;;;5093385;28;20503;-82
2021/07/09 00:24:00;;;;;;;3.10;2.87;;;15.40;99.90;;;;;;5093314;28;20470;-82
2021/07/09 00:26:27;;;;;;;4.13;3.07;;;15.40;99.90;;;;;;5093766;28;20447;-82
2021/07/09 00:28:54;;;;;;;3.43;2.90;;;15.40;99.90;;;;;;5093408;28;20468;-81
2021/07/09 00:31:20;;;;;;;3.67;2.67;;;15.40;99.90;;;;;;5093578;28;20448;-82
2021/07/09 00:33:47;;;;;;;3.90;3.10;;;15.40;99.90;;;;;;5093414;28;20451;-82
2021/07/09 00:36:14;;;;;;;2.80;2.60;;;15.40;99.90;;;;;;5093854;28;20456;-81
2021/07/09 00:38:40;;;;;;;5.50;3.00;;;15.40;99.90;;;;;;5093077;28;20997;-82
2021/07/09 00:41:09;;;;;;;2.27;2.10;;;15.40;99.90;;;;;;5093105;28;20475;-82
2021/07/09 00:43:35;;;;;;;3.03;2.63;;;15.40;99.90;;;;;;5093330;28;20443;-82
2021/07/09 00:46:02;;;;;;;2.60;2.50;;;15.40;99.90;;;;;;5093218;28;20451;-82
2021/07/09 00:48:29;;;;;;;3.17;2.97;;;15.50;99.90;;;;;;5093429;28;20475;-82
2021/07/09 00:50:58;;;;;;;2.60;2.50;;;15.40;99.90;;;;;;5093288;28;20444;-82
2021/07/09 00:53:24;;;;;;;3.63;2.80;;;15.40;99.90;;;;;;5093329;28;20458;-82
2021/07/09 00:55:52;;;;;;;3.30;3.00;;;15.40;99.90;;;;;;5093284;28;20443;-82
2021/07/09 00:58:21;;;;;;;2.97;2.53;;;15.40;99.90;;;;;;5093091;28;20459;-82
2021/07/09 01:00:48;;;;;;;2.57;2.27;;;15.40;99.90;;;;;;5093663;28;20486;-81
2021/07/09 01:03:14;;;;;;;3.80;3.10;;;15.50;99.90;;;;;;5096955;28;20903;-82
2021/07/09 01:05:41;;;;;;;2.30;2.20;;;15.50;99.90;;;;;;5097188;28;20451;-82
2021/07/09 01:08:08;;;;;;;2.90;2.80;;;15.50;99.90;;;;;;5097085;28;20468;-82
2021/07/09 01:10:35;;;;;;;2.80;2.60;;;15.40;99.90;;;;;;5097094;28;20428;-82
2021/07/09 01:13:02;;;;;;;4.40;2.20;;;15.40;99.90;;;;;;5097037;28;20450;-82
2021/07/09 01:15:30;;;;;;;2.93;2.80;;;15.40;99.90;;;;;;5096709;28;20444;-82
2021/07/09 01:17:57;;;;;;;2.37;2.20;;;15.40;99.90;;;;;;5097102;28;20472;-82
2021/07/09 01:20:24;;;;;;;3.23;2.60;;;15.50;99.90;;;;;;5096889;28;20452;-82
2021/07/09 01:22:52;;;;;;;2.97;2.57;;;15.40;99.90;;;;;;5096751;28;20483;-81
2021/07/09 01:25:22;;;;;;;2.33;2.20;;;15.40;99.90;;;;;;5096790;28;20447;-82
2021/07/09 01:27:51;;;;;;;2.20;2.00;;;15.50;99.90;;;;;;5096698;28;20475;-82
2021/07/09 01:30:20;;;;;;;2.73;2.50;;;15.50;99.90;;;;;;5096719;28;20444;-82
2021/07/09 01:32:47;;;;;;;2.43;2.10;;;15.50;99.90;;;;;;5096714;28;20440;-82
2021/07/09 01:35:15;;;;;;;2.40;2.20;;;15.50;99.90;;;;;;5096611;28;20471;-83
2021/07/09 01:37:43;;;;;;;4.23;2.47;;;15.40;99.90;;;;;;5096506;28;20455;-82
2021/07/09 01:40:13;;;;;;;2.53;2.33;;;15.40;99.90;;;;;;5096273;28;20775;-82
2021/07/09 01:42:41;;;;;;;2.03;1.87;;;15.40;99.90;;;;;;5096654;28;20471;-82
2021/07/09 01:45:09;;;;;;;2.60;1.90;;;15.40;99.90;;;;;;5096430;28;20443;-82
2021/07/09 01:47:35;;;;;;;2.87;2.30;;;15.40;99.90;;;;;;5096291;28;20451;-82
2021/07/09 01:50:04;;;;;;;1.90;1.80;;;15.40;99.90;;;;;;5096026;28;20943;-82
2021/07/09 01:52:31;;;;;;;2.37;1.70;;;15.40;99.90;;;;;;5096279;28;20436;-82
2021/07/09 01:54:59;;;;;;;1.80;1.70;;;15.40;99.90;;;;;;5096250;28;20451;-82
2021/07/09 01:57:27;;;;;;;2.07;1.97;;;15.30;99.90;;;;;;5096417;28;20428;-82
2021/07/09 01:59:55;;;;;;;2.13;2.03;;;15.40;99.90;;;;;;5095917;28;20477;-82
2021/07/09 02:02:22;;;;;;;3.07;1.97;;;15.30;99.90;;;;;;5095847;28;20491;-82
2021/07/09 02:04:50;;;;;;;2.40;2.00;;;15.30;99.90;;;;;;5096316;28;20466;-82
2021/07/09 02:07:18;;;;;;;2.50;2.27;;;15.30;99.90;;;;;;5095986;28;20456;-81
2021/07/09 02:09:47;;;;;;;2.60;2.40;;;15.30;99.90;;;;;;5095848;28;20460;-82
2021/07/09 02:12:16;;;;;;;2.03;1.90;;;15.30;99.90;;;;;;5095558;28;20455;-82
2021/07/09 02:14:42;;;;;;;2.37;2.27;;;15.30;99.90;;;;;;5095414;28;20944;-82
2021/07/09 02:17:12;;;;;;;2.50;2.30;;;15.30;99.90;;;;;;5095887;28;20444;-82
2021/07/09 02:19:40;;;;;;;2.33;2.20;;;15.30;99.90;;;;;;5095691;28;20470;-82
2021/07/09 02:22:09;;;;;;;2.50;2.20;;;15.30;99.90;;;;;;5095644;28;20487;-82
2021/07/09 02:24:36;;;;;;;2.43;2.23;;;15.30;99.90;;;;;;5095675;28;20452;-82
2021/07/09 02:27:05;;;;;;;2.87;2.67;;;15.30;99.90;;;;;;5095723;28;20448;-82
2021/07/09 02:29:32;;;;;;;2.00;1.90;;;15.30;99.90;;;;;;5095556;28;20970;-82
2021/07/09 02:32:00;;;;;;;2.53;2.17;;;15.30;99.90;;;;;;5095553;28;20912;-82
2021/07/09 02:34:28;;;;;;;2.87;2.37;;;15.30;99.90;;;;;;5095520;28;20454;-82
2021/07/09 02:36:55;;;;;;;2.90;2.70;;;15.30;99.90;;;;;;5095446;28;20779;-82
2021/07/09 02:39:22;;;;;;;2.00;1.90;;;15.30;99.90;;;;;;5095615;28;20464;-82
2021/07/09 02:41:49;;;;;;;3.07;2.80;;;15.30;99.90;;;;;;5095279;28;20490;-82
2021/07/09 02:44:16;;;;;;;2.40;2.30;;;15.30;99.90;;;;;;5095378;28;20835;-82
2021/07/09 02:46:43;;;;;;;4.30;2.40;;;15.30;99.90;;;;;;5095243;28;20440;-82
2021/07/09 02:49:10;;;;;;;2.93;2.73;;;15.30;99.90;;;;;;5095141;28;20463;-82
2021/07/09 02:51:39;;;;;;;3.20;1.80;;;15.20;99.90;;;;;;5095201;28;20439;-82
2021/07/09 02:54:06;;;;;;;2.70;2.50;;;15.20;99.90;;;;;;5095134;28;20448;-82
2021/07/09 02:56:33;;;;;;;2.17;2.00;;;15.20;99.90;;;;;;5095060;28;20475;-82
2021/07/09 02:59:00;;;;;;;2.90;2.70;;;15.20;99.90;;;;;;5094921;28;20468;-82
2021/07/09 03:01:27;;;;;;;2.60;2.50;;;15.20;99.90;;;;;;5094426;28;20892;-82
2021/07/09 03:03:54;;;;;;;1.97;1.87;;;15.20;99.90;;;;;;5094634;28;20911;-83
2021/07/09 03:06:21;;;;;;;2.00;1.90;;;15.20;99.90;;;;;;5094792;28;20825;-83
2021/07/09 03:08:50;;;;;;;2.57;2.17;;;15.20;99.90;;;;;;5094488;28;21002;-83
2021/07/09 03:11:18;;;;;;;2.47;2.27;;;15.20;99.90;;;;;;5094703;28;20448;-83
2021/07/09 03:13:45;;;;;;;3.50;2.20;;;15.20;99.90;;;;;;5094717;28;20539;-82
2021/07/09 03:16:12;;;;;;;2.40;2.20;;;15.20;99.90;;;;;;5094369;28;20962;-82
2021/07/09 03:18:38;;;;;;;4.37;2.20;;;15.30;99.90;;;;;;5094267;28;20463;-83
2021/07/09 03:21:05;;;;;;;2.57;2.47;;;15.30;99.90;;;;;;5094587;28;20452;-83
2021/07/09 03:23:32;;;;;;;5.00;2.57;;;15.20;99.90;;;;;;5094318;28;20480;-83
2021/07/09 03:26:00;;;;;;;3.33;2.37;;;15.20;99.90;;;;;;5093569;28;20448;-83
2021/07/09 03:28:27;;;;;;;3.80;2.33;;;15.20;99.90;;;;;;5094388;28;20468;-82
2021/07/09 03:30:54;;;;;;;5.80;2.90;;;15.20;99.90;;;;;;5094427;28;20863;-82
2021/07/09 03:33:21;;;;;;;7.30;4.33;;;15.20;99.90;;;;;;5094404;28;20440;-83
2021/07/09 03:35:48;;;;;;;3.70;2.53;;;15.20;99.90;;;;;;5094335;28;20809;-82
2021/07/09 03:38:15;;;;;;;3.10;2.83;;;15.20;99.90;;;;;;5093911;28;20470;-82
2021/07/09 03:40:42;;;;;;;4.97;2.97;;;15.20;99.90;;;;;;5094262;28;20445;-82
2021/07/09 03:43:10;;;;;;;3.07;2.87;;;15.20;99.90;;;;;;5094117;28;20476;-82
2021/07/09 03:45:36;;;;;;;2.67;2.47;;;15.30;99.90;;;;;;5094386;28;20444;-82
2021/07/09 03:48:04;;;;;;;3.10;2.90;;;15.30;99.90;;;;;;5094002;28;20463;-83
2021/07/09 03:50:30;;;;;;;2.53;2.40;;;15.30;99.90;;;;;;5094055;28;20432;-82
2021/07/09 03:52:57;;;;;;;9.80;3.50;;;15.30;99.90;;;;;;5093786;28;20433;-82
2021/07/09 03:55:24;;;;;;;3.23;3.03;;;15.30;99.90;;;;;;5093960;28;20447;-82
2021/07/09 03:57:51;;;;;;;3.20;3.00;;;15.30;99.90;;;;;;5093886;28;20468;-82
2021/07/09 04:00:20;;;;;;;3.03;2.80;;;15.30;99.90;;;;;;5093916;28;20432;-82
2021/07/09 04:02:47;;;;;;;3.40;3.10;;;15.20;99.90;;;;;;5093573;28;20491;-82
2021/07/09 04:05:14;;;;;;;3.47;3.17;;;15.30;99.90;;;;;;5093560;28;20432;-82
2021/07/09 04:07:41;;;;;;;5.97;3.20;;;15.30;99.90;;;;;;5093937;28;20448;-82
2021/07/09 04:10:09;;;;;;;3.40;3.20;;;15.30;99.90;;;;;;5094122;28;20448;-82
2021/07/09 04:12:36;;;;;;;3.10;2.80;;;15.30;99.90;;;;;;5093456;28;20953;-82
2021/07/09 04:15:03;;;;;;;3.30;3.10;;;15.30;99.90;;;;;;5093706;28;20448;-83
2021/07/09 04:17:31;;;;;;;2.73;2.53;;;15.30;99.90;;;;;;5093446;28;20459;-82
2021/07/09 04:19:58;;;;;;;2.80;2.70;;;15.30;99.90;;;;;;5093633;28;20523;-82
2021/07/09 04:22:25;;;;;;;3.37;3.07;;;15.30;99.90;;;;;;5093546;28;20471;-82
2021/07/09 04:24:52;;;;;;;4.43;3.20;;;15.20;99.90;;;;;;5093610;28;20452;-83
2021/07/09 04:27:18;;;;;;;4.20;2.50;;;15.20;99.90;;;;;;5093571;28;20444;-84
2021/07/09 04:29:46;;;;;;;2.90;2.70;;;15.20;99.90;;;;;;5093432;28;20468;-82
2021/07/09 04:32:13;;;;;;;3.40;2.80;;;15.20;99.90;;;;;;5093209;28;20444;-82
2021/07/09 04:34:41;;;;;;;5.20;2.30;;;15.20;99.90;;;;;;5093175;28;20472;-82
2021/07/09 04:37:09;;;;;;;2.70;2.50;;;15.20;99.90;;;;;;5092700;28;20806;-82
2021/07/09 04:39:37;;;;;;;2.60;2.40;;;15.20;99.90;;;;;;5093407;28;20525;-81
2021/07/09 04:42:04;;;;;;;2.20;2.10;;;15.20;99.90;;;;;;5093018;28;20998;-81
2021/07/09 04:44:31;;;;;;;4.80;2.90;;;15.10;99.90;;;;;;5093416;28;20448;-81
2021/07/09 04:46:58;;;;;;;3.17;2.57;;;15.10;99.90;;;;;;5093326;28;20451;-81
2021/07/09 04:49:25;;;;;;;2.73;2.47;;;15.00;99.90;;;;;;5093260;28;20463;-81
2021/07/09 04:51:53;;;;;;;4.30;3.17;;;15.00;99.90;;;;;;5093008;28;20440;-81
2021/07/09 04:54:20;;;;;;;2.90;2.70;;;15.00;99.90;;;;;;5092938;28;20863;-81
2021/07/09 04:56:47;;;;;;;2.60;2.40;;;14.90;99.90;;;;;;5093449;28;20444;-81
2021/07/09 04:59:14;;;;;;;1.83;1.73;;;14.90;99.90;;;;;;5092885;28;20971;-81
2021/07/09 05:01:41;;;;;;;2.57;2.37;;;14.90;99.90;;;;;;5093066;28;20485;-81
2021/07/09 05:04:08;;;;;;;2.93;2.67;;;14.90;99.90;;;;;;5093114;28;20483;-81
2021/07/09 05:06:35;;;;;;;2.87;2.60;;;14.90;99.90;;;;;;5093161;28;20483;-81
2021/07/09 05:09:04;;;;;;;2.90;2.70;;;14.90;99.90;;;;;;5093061;28;20464;-81
2021/07/09 05:11:30;;;;;;;2.57;2.40;;;14.90;99.90;;;;;;5093112;28;20439;-81
2021/07/09 05:13:57;;;;;;;2.70;2.50;;;14.90;99.90;;;;;;5093077;28;20444;-80
2021/07/09 05:16:24;;;;;;;3.93;2.67;;;14.90;99.90;;;;;;5092813;28;20447;-80
2021/07/09 05:18:52;;;;;;;2.30;2.20;;;14.90;99.90;;;;;;5092956;28;20468;-81
2021/07/09 05:21:19;;;;;;;2.97;2.67;;;14.90;99.90;;;;;;5092694;28;21056;-81
2021/07/09 05:23:46;;;;;;;3.07;2.70;;;15.00;99.90;;;;;;5092865;28;20841;-80
2021/07/09 05:26:14;;;;;;;2.43;2.33;;;15.00;99.90;;;;;;5092665;28;20981;-80
2021/07/09 05:28:41;;;;;;;3.03;2.17;;;15.00;99.90;;;;;;5092837;28;20471;-80
2021/07/09 05:31:07;;;;;;;2.70;2.60;;;15.00;99.90;;;;;;5092942;28;20440;-80
2021/07/09 05:33:34;;;;;;;2.50;2.30;;;15.00;99.90;;;;;;5092903;28;20882;-80
2021/07/09 05:36:01;;;;;;;3.00;2.43;;;14.90;99.90;;;;;;5092658;28;20443;-80
2021/07/09 05:38:28;;;;;;;2.93;2.73;;;14.90;99.90;;;;;;5092797;28;20495;-80
2021/07/09 05:40:55;;;;;;;2.37;2.27;;;14.80;99.90;;;;;;5092862;28;20474;-80
2021/07/09 05:43:23;;;;;;;2.63;2.30;;;14.80;99.90;;;;;;5092720;28;20487;-80
2021/07/09 05:45:50;;;;;;;3.70;3.40;;;14.90;99.90;;;;;;5092803;28;20781;-80
2021/07/09 05:48:16;;;;;;;3.13;2.80;;;14.90;99.90;;;;;;5094027;28;20459;-80
2021/07/09 05:50:44;;;;;;;2.83;2.63;;;14.90;99.90;;;;;;5096373;28;20455;-80
2021/07/09 05:53:10;;;;;;;2.70;2.60;;;15.00;99.90;;;;;;5096225;28;20827;-79
2021/07/09 05:55:37;;;;;;;3.60;2.70;;;15.00;99.90;;;;;;5096249;28;20458;-80
2021/07/09 05:58:04;;;;;;;2.93;2.73;;;15.00;99.90;;;;;;5096153;28;20479;-80
2021/07/09 06:00:35;;;;;;;3.10;2.90;;;15.00;99.90;;;;;;5096192;28;20452;-80
2021/07/09 06:03:02;;;;;;;3.10;2.90;;;15.00;99.90;;;;;;5095712;28;20920;-80
2021/07/09 06:05:29;;;;;;;3.43;3.17;;;15.10;99.90;;;;;;5096085;28;20454;-80
2021/07/09 06:07:55;;;;;;;3.40;2.97;;;15.20;99.90;;;;;;5096043;28;20492;-80
2021/07/09 06:10:25;;;;;;;3.37;3.00;;;15.20;99.90;;;;;;5096018;28;20452;-80
2021/07/09 06:12:51;;;;;;;3.43;3.10;;;15.20;99.90;;;;;;5095653;28;20914;-80
2021/07/09 06:15:18;;;;;;;3.80;3.50;;;15.30;99.90;;;;;;5095649;28;20775;-80
2021/07/09 06:17:46;;;;;;;3.47;3.27;;;15.30;99.90;;;;;;5095495;28;20474;-80
2021/07/09 06:20:14;;;;;;;3.60;3.30;;;15.30;99.90;;;;;;5095440;28;20946;-80
2021/07/09 06:22:40;;;;;;;3.47;3.23;;;15.30;99.90;;;;;;5095347;28;20845;-80
2021/07/09 06:25:08;;;;;;;5.10;4.60;;;15.30;99.90;;;;;;5095694;28;20448;-80
2021/07/09 06:27:35;;;;;;;6.13;4.93;;;15.30;99.90;;;;;;5095528;28;20451;-80
2021/07/09 06:30:02;;;;;;;5.20;4.37;;;15.30;99.90;;;;;;5095560;28;20451;-80
2021/07/09 06:32:28;;;;;;;4.30;4.00;;;15.30;99.90;;;;;;5095516;28;20444;-80
2021/07/09 06:34:56;;;;;;;3.90;3.60;;;15.30;99.90;;;;;;5095575;28;20436;-80
2021/07/09 06:37:24;;;;;;;5.50;4.23;;;15.30;99.90;;;;;;5095532;28;20436;-80
2021/07/09 06:39:51;;;;;;;4.53;4.13;;;15.30;99.90;;;;;;5095440;28;20467;-80
2021/07/09 06:42:18;;;;;;;4.43;4.00;;;15.30;99.90;;;;;;5095050;28;20979;-80
2021/07/09 06:44:45;;;;;;;7.50;4.50;;;15.30;99.90;;;;;;5095363;28;20443;-81
2021/07/09 06:47:12;;;;;;;4.30;4.00;;;15.40;99.90;;;;;;5095304;28;20428;-81
2021/07/09 06:49:38;;;;;;;5.10;4.70;;;15.40;99.90;;;;;;5094878;28;21010;-80
2021/07/09 06:52:07;;;;;;;4.93;4.43;;;15.40;99.90;;;;;;5095280;28;20413;-80
2021/07/09 06:54:34;;;;;;;5.43;5.03;;;15.50;99.90;;;;;;5095160;28;20436;-80
2021/07/09 06:57:01;;;;;;;5.50;5.00;;;15.50;99.90;;;;;;5095115;28;20436;-80
2021/07/09 06:59:27;;;;;;;5.87;5.37;;;15.50;99.90;;;;;;5094837;28;20460;-81
2021/07/09 07:01:56;;;;;;;5.83;5.30;;;15.60;99.90;;;;;;5094657;28;20837;-82
2021/07/09 07:04:23;;;;;;;5.80;5.17;;;15.60;99.90;;;;;;5094629;28;20479;-81
2021/07/09 07:06:51;;;;;;;6.63;5.03;;;15.70;99.90;;;;;;5094652;28;20930;-81
2021/07/09 07:09:19;;;;;;;5.20;4.90;;;15.70;99.90;;;;;;5094662;28;20819;-82
2021/07/09 07:11:46;;;;;;;5.60;5.13;;;15.80;99.90;;;;;;5094866;28;20420;-82
2021/07/09 07:14:13;;;;;;;5.73;5.30;;;16.00;99.90;;;;;;5094500;28;20431;-82
2021/07/09 07:16:40;;;;;;;7.57;5.87;;;16.10;99.90;;;;;;5094684;28;20448;-82
2021/07/09 07:19:07;;;;;;;5.60;5.20;;;16.10;99.90;;;;;;5094274;28;20842;-82
2021/07/09 07:21:33;;;;;;;5.40;4.90;;;16.20;99.90;;;;;;5094888;28;20450;-80
2021/07/09 07:24:00;;;;;;;5.60;5.20;;;16.30;99.90;;;;;;5095029;28;20835;-81
2021/07/09 07:26:28;;;;;;;5.07;4.67;;;16.20;99.90;;;;;;5094248;28;20432;-82
2021/07/09 07:28:55;;;;;;;5.30;4.90;;;16.20;99.90;;;;;;5094409;28;20460;-82
2021/07/09 07:31:21;;;;;;;5.00;4.57;;;16.20;99.90;;;;;;5094408;28;20437;-83
2021/07/09 07:33:48;;;;;;;5.90;5.40;;;16.30;99.90;;;;;;5094098;28;20448;-82
2021/07/09 07:36:16;;;;;;;5.33;4.90;;;16.40;99.90;;;;;;5094359;28;20455;-82
2021/07/09 07:38:43;;;;;;;5.57;5.17;;;16.40;99.90;;;;;;5094201;28;20467;-81
2021/07/09 07:41:10;;;;;;;5.57;5.00;;;16.50;99.90;;;;;;5094241;28;20455;-81
2021/07/09 07:43:38;;;;;;;5.53;5.03;;;16.70;99.90;;;;;;5094095;28;20480;-81
2021/07/09 07:46:06;;;;;;;5.40;4.90;;;16.80;99.90;;;;;;5093793;28;20447;-83
2021/07/09 07:48:32;;;;;;;6.07;4.40;;;16.80;99.90;;;;;;5094033;28;20464;-82
2021/07/09 07:50:59;;;;;;;5.37;4.90;;;16.90;99.90;;;;;;5093823;28;20436;-82
2021/07/09 07:53:26;;;;;;;6.23;5.27;;;16.90;99.90;;;;;;5094036;28;20958;-81
2021/07/09 07:55:52;;;;;;;4.70;4.40;;;16.90;99.90;;;;;;5094006;28;20439;-83
2021/07/09 07:58:19;;;;;;;5.23;4.67;;;17.00;99.90;;;;;;5093612;28;21108;-83
2021/07/09 08:00:47;;;;;;;4.90;4.50;;;17.00;99.90;;;;;;5093797;28;20915;-83
2021/07/09 08:03:14;;;;;;;4.90;4.60;;;17.10;99.90;;;;;;5093853;28;20471;-83
2021/07/09 08:05:41;;;;;;;5.37;4.97;;;17.20;99.90;;;;;;5093576;28;20800;-82
2021/07/09 08:08:08;;;;;;;5.03;4.70;;;17.40;99.90;;;;;;5093661;28;20459;-83
2021/07/09 08:10:34;;;;;;;5.20;4.80;;;17.70;99.90;;;;;;5092825;28;20985;-84
2021/07/09 08:13:01;;;;;;;5.20;4.90;;;17.90;99.90;;;;;;5093285;28;20456;-84
2021/07/09 08:15:28;;;;;;;4.30;4.10;;;18.20;99.90;;;;;;5093764;28;20417;-84
2021/07/09 08:17:56;;;;;;;4.37;4.07;;;18.50;99.90;;;;;;5093330;28;20974;-85
2021/07/09 08:20:23;;;;;;;4.47;4.10;;;18.70;99.90;;;;;;5093635;28;20448;-82
2021/07/09 08:22:50;;;;;;;4.30;3.90;;;19.20;99.90;;;;;;5093587;28;20444;-81
2021/07/09 08:25:17;;;;;;;4.40;4.07;;;19.80;99.90;;;;;;5093690;28;20428;-84
2021/07/09 08:27:44;;;;;;;3.33;3.03;;;20.30;99.90;;;;;;5093515;28;20436;-83
2021/07/09 08:30:12;;;;;;;4.17;3.87;;;20.60;99.90;;;;;;5093663;28;20428;-86
2021/07/09 08:32:40;;;;;;;3.73;3.53;;;20.80;99.90;;;;;;5093435;28;20408;-85
2021/07/09 08:35:09;;;;;;;3.33;3.13;;;20.90;99.90;;;;;;5093788;28;20515;-86
2021/07/09 08:37:36;;;;;;;4.00;3.70;;;20.80;99.90;;;;;;5093859;28;20431;-86
2021/07/09 08:40:05;;;;;;;4.13;3.83;;;20.80;99.90;;;;;;5093608;28;20438;-86
2021/07/09 08:42:32;;;;;;;5.13;4.23;;;20.70;99.90;;;;;;5093557;28;20514;-85
2021/07/09 08:45:00;;;;;;;4.70;3.40;;;20.40;99.90;;;;;;5093455;28;20466;-84
2021/07/09 08:47:29;;;;;;;3.80;3.50;;;20.30;99.90;;;;;;5093618;28;20428;-81
2021/07/09 08:49:58;;;;;;;3.30;3.10;;;20.30;99.90;;;;;;5093463;28;20428;-86
2021/07/09 08:52:26;;;;;;;3.20;3.00;;;20.40;99.90;;;;;;5093155;28;20432;-86
2021/07/09 08:54:53;;;;;;;3.03;2.83;;;20.40;99.90;;;;;;5093423;28;20420;-86
2021/07/09 08:57:20;;;;;;;3.67;3.23;;;20.30;99.90;;;;;;5093095;28;20416;-86
2021/07/09 08:59:47;;;;;;;3.37;3.03;;;20.20;99.90;;;;;;5093040;28;20982;-87
2021/07/09 09:02:14;;;;;;;4.40;4.00;;;20.10;99.90;;;;;;5093068;28;20486;-86
2021/07/09 09:04:40;;;;;;;2.93;2.80;;;20.20;99.90;;;;;;5093048;28;20480;-88
2021/07/09 09:07:11;;;;;;;4.00;3.70;;;20.30;99.90;;;;;;5093298;28;20443;-82
2021/07/09 09:09:41;;;;;;;5.67;3.20;;;20.20;99.90;;;;;;5093220;28;20476;-85
2021/07/09 09:12:10;;;;;;;3.70;3.50;;;20.20;99.90;;;;;;5093348;28;20432;-86
2021/07/09 09:14:38;;;;;;;3.70;3.40;;;20.10;99.90;;;;;;5093316;28;20424;-85
2021/07/09 09:17:29;;;;;;;3.70;3.40;;;20.10;99.90;;;;;;5093289;28;20432;-85
2021/07/09 09:20:12;;;;;;;3.30;3.00;;;20.30;99.90;;;;;;5093386;28;20493;-82
2021/07/09 09:22:54;;;;;;;3.07;2.87;;;20.30;99.90;;;;;;5095108;28;20436;-82
2021/07/09 09:25:25;;;;;;;3.57;3.33;;;20.10;99.90;;;;;;5097122;28;20464;-82
2021/07/09 09:28:01;;;;;;;3.67;3.37;;;20.10;99.90;;;;;;5096833;28;20471;-85
2021/07/09 09:30:29;;;;;;;3.17;2.97;;;20.10;99.90;;;;;;5096938;28;20412;-86
2021/07/09 09:32:56;;;;;;;3.00;2.83;;;20.20;99.90;;;;;;5096553;28;20439;-85
2021/07/09 09:35:24;;;;;;;3.67;3.43;;;20.40;99.90;;;;;;5096786;28;20419;-85
2021/07/09 09:37:52;;;;;;;3.20;2.93;;;20.60;99.90;;;;;;5096744;28;20467;-85
2021/07/09 09:40:21;;;;;;;3.70;3.40;;;20.80;99.90;;;;;;5096762;28;20428;-85
2021/07/09 09:42:49;;;;;;;4.20;3.90;;;20.90;99.90;;;;;;5096555;28;20423;-85
2021/07/09 09:45:21;;;;;;;5.13;4.67;;;20.80;99.90;;;;;;5096881;28;20463;-85
2021/07/09 09:47:48;;;;;;;4.03;3.73;;;20.80;99.90;;;;;;5096234;28;20497;-86
2021/07/09 09:50:17;;;;;;;3.80;3.60;;;20.80;99.90;;;;;;5096130;28;20451;-81
2021/07/09 09:52:47;;;;;;;6.13;4.63;;;20.90;99.90;;;;;;5096376;28;20427;-84
2021/07/09 09:55:16;;;;;;;4.00;3.70;;;21.00;99.90;;;;;;5097118;28;20751;-84
2021/07/09 09:57:44;;;;;;;3.30;3.10;;;21.20;99.90;;;;;;5096304;28;20435;-84
2021/07/09 10:00:29;;;;;;;3.23;3.03;;;21.50;99.90;;;;;;5096283;28;20431;-84
2021/07/09 10:02:56;;;;;;;2.97;2.87;;;21.70;99.90;;;;;;5096062;28;20992;-85
2021/07/09 10:05:24;;;;;;;3.17;2.97;;;21.90;99.90;;;;;;5095881;28;20466;-80
2021/07/09 10:07:53;;;;;;;3.43;3.23;;;22.20;99.90;;;;;;5096060;28;20471;-80
2021/07/09 10:10:21;;;;;;;3.10;3.00;;;22.60;99.90;;;;;;5096138;28;20431;-80
2021/07/09 10:12:51;;;;;;;3.57;3.37;;;23.00;99.90;;;;;;5096236;28;20486;-80
2021/07/09 10:15:19;;;;;;;2.70;2.60;;;23.10;99.90;;;;;;5095998;28;20186;-80
2021/07/09 10:17:50;;;;;;;3.77;3.47;;;22.80;99.90;;;;;;5095576;28;20734;-86
2021/07/09 10:20:19;;;;;;;3.13;3.03;;;22.50;99.90;;;;;;5095988;28;20899;-86
2021/07/09 10:22:47;;;;;;;3.97;3.77;;;22.50;99.90;;;;;;5096129;28;20493;-85
2021/07/09 10:25:16;;;;;;;4.77;4.47;;;22.50;99.90;;;;;;5095784;28;20969;-83
2021/07/09 10:27:43;;;;;;;3.30;3.00;;;22.90;99.90;;;;;;5095981;28;20451;-85
2021/07/09 10:30:11;;;;;;;3.30;3.20;;;23.10;99.90;;;;;;5095708;28;20436;-85
2021/07/09 10:32:41;;;;;;;4.57;4.27;;;23.40;99.90;;;;;;5095409;28;20927;-86
2021/07/09 10:35:10;;;;;;;4.33;4.03;;;23.30;99.90;;;;;;5094904;28;20895;-85
2021/07/09 10:37:37;;;;;;;4.40;4.10;;;23.10;99.90;;;;;;5095486;28;20416;-85
2021/07/09 10:40:08;;;;;;;6.30;4.90;;;22.80;99.90;;;;;;5095235;28;20404;-80
2021/07/09 10:42:42;;;;;;;12.17;5.00;;;22.40;99.90;;;;;;5095095;28;20941;-81
2021/07/09 10:45:22;;;;;;;5.53;4.97;;;22.00;99.90;;;;;;5095387;28;20546;-81
2021/07/09 10:47:53;;;;;;;6.40;4.87;;;21.70;99.90;;;;;;5095839;28;20505;-81
2021/07/09 10:50:41;;;;;;;4.73;4.40;;;21.60;99.90;;;;;;5095184;28;20448;-81
2021/07/09 10:53:20;;;;;;;6.33;5.43;;;21.30;99.90;;;;;;5095220;28;20439;-81
2021/07/09 10:56:02;;;;;;;5.07;4.67;;;21.20;99.90;;;;;;5094886;28;20809;-81
2021/07/09 10:58:43;;;;;;;5.50;4.90;;;21.20;99.90;;;;;;5093075;28;20471;-81
2021/07/09 11:01:14;;;;;;;7.13;5.17;;;21.40;99.90;;;;;;5094893;28;20847;-81
2021/07/09 11:03:44;;;;;;;6.20;5.70;;;21.60;99.90;;;;;;5094980;28;20409;-81
2021/07/09 11:06:13;;;;;;;5.87;5.47;;;21.50;99.90;;;;;;5094750;28;20404;-81
2021/07/09 11:09:01;;;;;;;4.63;4.33;;;21.60;99.90;;;;;;5095159;28;20483;-81
2021/07/09 11:11:34;;;;;;;4.10;3.90;;;22.30;99.90;;;;;;5094829;28;20424;-84
2021/07/09 11:14:03;;;;;;;4.50;4.10;;;22.60;99.90;;;;;;5094859;28;20431;-81
2021/07/09 11:16:32;;;;;;;4.77;4.37;;;22.90;99.90;;;;;;5094812;28;20427;-81
2021/07/09 11:19:08;;;;;;;4.43;4.10;;;22.90;99.90;;;;;;5094647;28;20464;-81
2021/07/09 11:21:52;;;;;;;4.43;4.13;;;22.70;99.90;;;;;;5094410;28;20908;-79
2021/07/09 11:24:20;;;;;;;5.27;4.87;;;22.90;99.90;;;;;;5092715;28;20294;-79
2021/07/09 11:26:49;;;;;;;4.90;4.50;;;23.10;99.90;;;;;;5094262;28;20636;-80
2021/07/09 11:29:30;;;;;;;4.60;4.30;;;23.00;99.90;;;;;;5094392;28;20229;-79
2021/07/09 11:31:59;;;;;;;5.00;4.70;;;22.60;99.90;;;;;;5094574;28;20181;-79
2021/07/09 11:34:30;;;;;;;5.87;5.37;;;22.40;99.90;;;;;;5094189;28;20420;-79
2021/07/09 11:36:59;;;;;;;6.30;4.50;;;22.10;99.90;;;;;;5094100;28;20915;-79
2021/07/09 11:39:27;;;;;;;5.70;4.53;;;21.90;99.90;;;;;;5094292;28;20978;-83
2021/07/09 11:42:13;;;;;;;5.10;4.80;;;22.00;99.90;;;;;;5094338;28;20439;-83
2021/07/09 11:44:42;;;;;;;6.73;5.00;;;22.10;99.90;;;;;;5094247;28;20494;-83
2021/07/09 11:47:12;;;;;;;5.63;5.13;;;22.10;99.90;;;;;;5093594;28;20514;-83
2021/07/09 11:49:42;;;;;;;5.20;4.80;;;21.90;99.90;;;;;;5094679;28;20467;-83
2021/07/09 11:52:11;;;;;;;4.77;4.47;;;21.80;99.90;;;;;;5094368;28;20428;-78
2021/07/09 11:54:39;;;;;;;5.53;3.87;;;21.80;99.90;;;;;;5094516;28;20465;-80
2021/07/09 11:57:09;;;;;;;4.57;4.30;;;21.70;99.90;;;;;;5094219;28;20424;-79
2021/07/09 11:59:36;;;;;;;4.17;3.87;;;21.80;99.90;;;;;;5094157;28;20516;-78
2021/07/09 12:02:09;;;;;;;4.33;4.03;;;21.70;99.90;;;;;;5093897;28;20481;-79
2021/07/09 12:04:39;;;;;;;4.60;4.20;;;21.70;99.90;;;;;;5093880;28;20472;-79
2021/07/09 12:07:29;;;;;;;3.90;3.70;;;21.70;99.90;;;;;;5093588;28;20794;-81
2021/07/09 12:09:58;;;;;;;3.77;3.47;;;21.90;99.90;;;;;;5094196;28;20412;-81
2021/07/09 12:12:27;;;;;;;3.17;3.07;;;22.10;99.90;;;;;;5093557;28;20775;-81
2021/07/09 12:14:59;;;;;;;2.70;2.60;;;22.40;99.90;;;;;;5093513;28;20918;-81
2021/07/09 12:17:28;;;;;;;3.00;2.80;;;22.70;99.90;;;;;;5093694;28;20434;-82
2021/07/09 12:20:05;;;;;;;2.73;2.53;;;22.60;99.90;;;;;;5093879;28;20424;-88
2021/07/09 12:22:34;;;;;;;2.83;2.63;;;22.50;99.90;;;;;;5093985;28;20428;-87
2021/07/09 12:25:04;;;;;;;3.67;3.47;;;22.30;99.90;;;;;;5093378;28;20459;-86
2021/07/09 12:27:32;;;;;;;3.23;2.93;;;22.20;99.90;;;;;;5093660;28;20452;-86
2021/07/09 12:30:04;;;;;;;3.40;3.20;;;22.00;99.90;;;;;;5093627;28;20435;-87
2021/07/09 12:32:31;;;;;;;2.93;2.73;;;21.80;99.90;;;;;;5093592;28;20432;-86
2021/07/09 12:35:06;;;;;;;2.43;2.23;;;21.80;99.90;;;;;;5093345;28;20415;-79
2021/07/09 12:37:34;;;;;;;3.00;2.83;;;21.80;99.90;;;;;;5093402;28;20439;-79
2021/07/09 12:40:17;;;;;;;3.50;3.30;;;21.80;99.90;;;;;;5093442;28;20431;-79
2021/07/09 12:42:45;;;;;;;4.33;3.10;;;21.60;99.90;;;;;;5093062;28;20822;-79
2021/07/09 12:45:12;;;;;;;3.47;3.27;;;21.50;99.90;;;;;;5093366;28;20537;-79
2021/07/09 12:47:53;;;;;;;5.40;3.70;;;21.40;99.90;;;;;;5093588;28;20838;-79
2021/07/09 12:50:23;;;;;;;3.30;3.10;;;21.40;99.90;;;;;;5093061;28;20431;-79
2021/07/09 12:52:51;;;;;;;4.27;3.40;;;21.60;99.90;;;;;;5093561;28;20412;-80
2021/07/09 12:55:39;;;;;;;3.67;2.83;;;21.70;99.90;;;;;;5093167;28;20907;-79